sensor_id;sensor_type;location;lat;lon;timestamp;temperature;humidity
12156;DHT22;6141;49.092;8.516;2023-07-13T00:00:04;19.90;41.40
12156;DHT22;6141;49.092;8.516;2023-07-13T00:02:40;19.80;41.90
12156;DHT22;6141;49.092;8.516;2023-07-13T00:05:09;19.80;42.00
12156;DHT22;6141;49.092;8.516;2023-07-13T00:07:37;19.80;41.90
12156;DHT22;6141;49.092;8.516;2023-07-13T00:10:06;19.60;41.70
12156;DHT22;6141;49.092;8.516;2023-07-13T00:12:38;19.60;42.70
12156;DHT22;6141;49.092;8.516;2023-07-13T00:15:12;19.60;43.00
12156;DHT22;6141;49.092;8.516;2023-07-13T00:17:41;19.80;41.90
12156;DHT22;6141;49.092;8.516;2023-07-13T00:20:11;19.90;41.10
12156;DHT22;6141;49.092;8.516;2023-07-13T00:22:41;20.00;40.40
12156;DHT22;6141;49.092;8.516;2023-07-13T00:25:10;20.00;39.90
12156;DHT22;6141;49.092;8.516;2023-07-13T00:27:43;20.00;40.10
12156;DHT22;6141;49.092;8.516;2023-07-13T00:30:13;19.80;40.40
12156;DHT22;6141;49.092;8.516;2023-07-13T00:32:41;19.70;41.20
12156;DHT22;6141;49.092;8.516;2023-07-13T00:35:09;19.60;41.70
12156;DHT22;6141;49.092;8.516;2023-07-13T00:37:37;19.50;41.60
12156;DHT22;6141;49.092;8.516;2023-07-13T00:40:09;19.60;41.70
12156;DHT22;6141;49.092;8.516;2023-07-13T00:42:38;19.40;41.50
12156;DHT22;6141;49.092;8.516;2023-07-13T00:48:10;19.30;42.60
12156;DHT22;6141;49.092;8.516;2023-07-13T00:50:39;19.60;41.70
12156;DHT22;6141;49.092;8.516;2023-07-13T00:53:07;19.80;40.30
12156;DHT22;6141;49.092;8.516;2023-07-13T00:55:36;19.80;39.80
12156;DHT22;6141;49.092;8.516;2023-07-13T00:58:05;19.40;41.50
12156;DHT22;6141;49.092;8.516;2023-07-13T01:00:36;19.40;41.60
12156;DHT22;6141;49.092;8.516;2023-07-13T01:03:06;19.20;42.30
12156;DHT22;6141;49.092;8.516;2023-07-13T01:05:36;19.40;41.50
12156;DHT22;6141;49.092;8.516;2023-07-13T01:08:06;19.60;40.60
12156;DHT22;6141;49.092;8.516;2023-07-13T01:10:35;19.80;40.00
12156;DHT22;6141;49.092;8.516;2023-07-13T01:13:06;19.50;40.80
12156;DHT22;6141;49.092;8.516;2023-07-13T01:15:40;19.20;41.30
12156;DHT22;6141;49.092;8.516;2023-07-13T01:18:13;19.30;41.40
12156;DHT22;6141;49.092;8.516;2023-07-13T01:20:52;19.70;39.50
12156;DHT22;6141;49.092;8.516;2023-07-13T01:23:20;20.10;37.60
12156;DHT22;6141;49.092;8.516;2023-07-13T01:25:48;20.10;36.70
12156;DHT22;6141;49.092;8.516;2023-07-13T01:28:17;19.90;37.70
12156;DHT22;6141;49.092;8.516;2023-07-13T01:30:46;19.80;37.60
12156;DHT22;6141;49.092;8.516;2023-07-13T01:33:16;20.00;36.50
12156;DHT22;6141;49.092;8.516;2023-07-13T01:35:47;20.20;35.90
12156;DHT22;6141;49.092;8.516;2023-07-13T01:38:18;19.90;36.30
12156;DHT22;6141;49.092;8.516;2023-07-13T01:40:47;19.90;36.20
12156;DHT22;6141;49.092;8.516;2023-07-13T01:43:15;19.90;35.60
12156;DHT22;6141;49.092;8.516;2023-07-13T01:45:44;19.80;36.50
12156;DHT22;6141;49.092;8.516;2023-07-13T01:48:13;19.30;37.70
12156;DHT22;6141;49.092;8.516;2023-07-13T01:50:41;18.70;40.10
12156;DHT22;6141;49.092;8.516;2023-07-13T01:53:11;18.60;40.80
12156;DHT22;6141;49.092;8.516;2023-07-13T01:55:39;18.90;41.00
12156;DHT22;6141;49.092;8.516;2023-07-13T01:58:07;18.70;41.80
12156;DHT22;6141;49.092;8.516;2023-07-13T02:00:36;18.40;44.70
12156;DHT22;6141;49.092;8.516;2023-07-13T02:03:04;18.30;44.90
12156;DHT22;6141;49.092;8.516;2023-07-13T02:05:32;18.40;44.30
12156;DHT22;6141;49.092;8.516;2023-07-13T02:08:00;18.90;41.50
12156;DHT22;6141;49.092;8.516;2023-07-13T02:10:32;19.10;41.30
12156;DHT22;6141;49.092;8.516;2023-07-13T02:13:00;19.10;41.20
12156;DHT22;6141;49.092;8.516;2023-07-13T02:15:28;18.90;41.00
12156;DHT22;6141;49.092;8.516;2023-07-13T02:17:56;18.80;40.90
12156;DHT22;6141;49.092;8.516;2023-07-13T02:20:25;18.50;42.30
12156;DHT22;6141;49.092;8.516;2023-07-13T02:22:54;18.30;42.60
12156;DHT22;6141;49.092;8.516;2023-07-13T02:25:22;18.50;42.70
12156;DHT22;6141;49.092;8.516;2023-07-13T02:27:53;18.50;42.60
12156;DHT22;6141;49.092;8.516;2023-07-13T02:30:21;18.60;42.00
12156;DHT22;6141;49.092;8.516;2023-07-13T02:32:53;18.80;40.90
12156;DHT22;6141;49.092;8.516;2023-07-13T02:35:21;18.70;40.90
12156;DHT22;6141;49.092;8.516;2023-07-13T02:37:50;18.80;40.90
12156;DHT22;6141;49.092;8.516;2023-07-13T02:40:18;18.60;40.70
12156;DHT22;6141;49.092;8.516;2023-07-13T02:42:46;18.50;40.80
12156;DHT22;6141;49.092;8.516;2023-07-13T02:45:15;18.80;39.70
12156;DHT22;6141;49.092;8.516;2023-07-13T02:47:43;19.00;39.00
12156;DHT22;6141;49.092;8.516;2023-07-13T02:50:11;18.70;40.90
12156;DHT22;6141;49.092;8.516;2023-07-13T02:52:40;18.00;42.00
12156;DHT22;6141;49.092;8.516;2023-07-13T02:55:09;17.80;43.60
12156;DHT22;6141;49.092;8.516;2023-07-13T02:57:37;18.10;42.40
12156;DHT22;6141;49.092;8.516;2023-07-13T03:00:06;18.50;40.60
12156;DHT22;6141;49.092;8.516;2023-07-13T03:02:36;18.60;40.70
12156;DHT22;6141;49.092;8.516;2023-07-13T03:05:04;18.20;42.00
12156;DHT22;6141;49.092;8.516;2023-07-13T03:07:33;17.50;44.00
12156;DHT22;6141;49.092;8.516;2023-07-13T03:10:01;17.30;45.80
12156;DHT22;6141;49.092;8.516;2023-07-13T03:12:39;17.20;47.50
12156;DHT22;6141;49.092;8.516;2023-07-13T03:15:14;17.40;46.50
12156;DHT22;6141;49.092;8.516;2023-07-13T03:17:45;17.50;46.60
12156;DHT22;6141;49.092;8.516;2023-07-13T03:20:14;17.50;46.70
12156;DHT22;6141;49.092;8.516;2023-07-13T03:22:42;17.60;46.70
12156;DHT22;6141;49.092;8.516;2023-07-13T03:25:11;17.70;46.20
12156;DHT22;6141;49.092;8.516;2023-07-13T03:27:39;17.50;47.50
12156;DHT22;6141;49.092;8.516;2023-07-13T03:30:09;17.40;48.10
12156;DHT22;6141;49.092;8.516;2023-07-13T03:32:38;17.20;48.60
12156;DHT22;6141;49.092;8.516;2023-07-13T03:35:08;17.20;49.40
12156;DHT22;6141;49.092;8.516;2023-07-13T03:37:37;17.20;51.30
12156;DHT22;6141;49.092;8.516;2023-07-13T03:40:12;17.20;50.60
12156;DHT22;6141;49.092;8.516;2023-07-13T03:42:43;17.40;49.00
12156;DHT22;6141;49.092;8.516;2023-07-13T03:45:14;17.70;46.50
12156;DHT22;6141;49.092;8.516;2023-07-13T03:47:42;18.10;45.20
12156;DHT22;6141;49.092;8.516;2023-07-13T03:50:12;18.20;44.90
12156;DHT22;6141;49.092;8.516;2023-07-13T03:52:40;17.90;46.40
12156;DHT22;6141;49.092;8.516;2023-07-13T03:55:09;17.80;47.30
12156;DHT22;6141;49.092;8.516;2023-07-13T03:57:37;17.60;48.40
12156;DHT22;6141;49.092;8.516;2023-07-13T04:00:09;17.30;50.40
12156;DHT22;6141;49.092;8.516;2023-07-13T04:02:41;16.90;51.60
12156;DHT22;6141;49.092;8.516;2023-07-13T04:05:11;17.10;51.80
12156;DHT22;6141;49.092;8.516;2023-07-13T04:07:39;17.20;51.90
12156;DHT22;6141;49.092;8.516;2023-07-13T04:10:07;17.20;52.00
12156;DHT22;6141;49.092;8.516;2023-07-13T04:12:36;17.40;52.10
12156;DHT22;6141;49.092;8.516;2023-07-13T04:15:05;17.30;52.00
12156;DHT22;6141;49.092;8.516;2023-07-13T04:17:33;17.30;53.20
12156;DHT22;6141;49.092;8.516;2023-07-13T04:20:01;17.50;52.30
12156;DHT22;6141;49.092;8.516;2023-07-13T04:22:32;17.70;51.30
12156;DHT22;6141;49.092;8.516;2023-07-13T04:25:00;17.50;52.20
12156;DHT22;6141;49.092;8.516;2023-07-13T04:27:28;17.70;50.80
12156;DHT22;6141;49.092;8.516;2023-07-13T04:29:56;17.80;50.50
12156;DHT22;6141;49.092;8.516;2023-07-13T04:32:24;17.70;50.90
12156;DHT22;6141;49.092;8.516;2023-07-13T04:34:52;17.50;52.20
12156;DHT22;6141;49.092;8.516;2023-07-13T04:37:22;17.30;53.60
12156;DHT22;6141;49.092;8.516;2023-07-13T04:39:52;17.40;52.70
12156;DHT22;6141;49.092;8.516;2023-07-13T04:42:20;17.80;51.00
12156;DHT22;6141;49.092;8.516;2023-07-13T04:44:48;18.30;49.10
12156;DHT22;6141;49.092;8.516;2023-07-13T04:47:17;18.30;50.60
12156;DHT22;6141;49.092;8.516;2023-07-13T04:49:45;17.80;51.90
12156;DHT22;6141;49.092;8.516;2023-07-13T04:52:13;18.00;51.60
12156;DHT22;6141;49.092;8.516;2023-07-13T04:54:41;18.20;51.00
12156;DHT22;6141;49.092;8.516;2023-07-13T04:57:11;18.20;52.00
12156;DHT22;6141;49.092;8.516;2023-07-13T04:59:39;18.10;52.90
12156;DHT22;6141;49.092;8.516;2023-07-13T05:02:07;18.30;51.30
12156;DHT22;6141;49.092;8.516;2023-07-13T05:04:35;18.90;49.70
12156;DHT22;6141;49.092;8.516;2023-07-13T05:07:05;18.90;49.40
12156;DHT22;6141;49.092;8.516;2023-07-13T05:09:33;18.90;50.30
12156;DHT22;6141;49.092;8.516;2023-07-13T05:12:02;18.80;51.10
12156;DHT22;6141;49.092;8.516;2023-07-13T05:14:31;18.90;52.10
12156;DHT22;6141;49.092;8.516;2023-07-13T05:17:00;19.20;50.40
12156;DHT22;6141;49.092;8.516;2023-07-13T05:19:28;19.50;49.50
12156;DHT22;6141;49.092;8.516;2023-07-13T05:21:56;19.30;49.10
12156;DHT22;6141;49.092;8.516;2023-07-13T05:24:25;19.10;51.50
12156;DHT22;6141;49.092;8.516;2023-07-13T05:26:53;18.90;51.70
12156;DHT22;6141;49.092;8.516;2023-07-13T05:29:24;19.00;51.30
12156;DHT22;6141;49.092;8.516;2023-07-13T05:31:55;19.00;50.90
12156;DHT22;6141;49.092;8.516;2023-07-13T05:34:23;19.20;50.60
12156;DHT22;6141;49.092;8.516;2023-07-13T05:36:51;19.20;50.80
12156;DHT22;6141;49.092;8.516;2023-07-13T05:39:19;19.30;50.00
12156;DHT22;6141;49.092;8.516;2023-07-13T05:41:48;19.70;48.20
12156;DHT22;6141;49.092;8.516;2023-07-13T05:44:16;19.90;45.60
12156;DHT22;6141;49.092;8.516;2023-07-13T05:46:45;20.00;44.90
12156;DHT22;6141;49.092;8.516;2023-07-13T05:49:15;20.10;43.40
12156;DHT22;6141;49.092;8.516;2023-07-13T05:51:43;19.80;44.40
12156;DHT22;6141;49.092;8.516;2023-07-13T05:54:11;19.60;44.90
12156;DHT22;6141;49.092;8.516;2023-07-13T05:56:39;19.70;45.20
12156;DHT22;6141;49.092;8.516;2023-07-13T05:59:07;19.70;44.30
12156;DHT22;6141;49.092;8.516;2023-07-13T06:01:36;20.10;43.40
12156;DHT22;6141;49.092;8.516;2023-07-13T06:04:04;20.50;42.40
12156;DHT22;6141;49.092;8.516;2023-07-13T06:06:34;20.80;39.90
12156;DHT22;6141;49.092;8.516;2023-07-13T06:09:04;20.50;41.00
12156;DHT22;6141;49.092;8.516;2023-07-13T06:11:33;20.10;42.20
12156;DHT22;6141;49.092;8.516;2023-07-13T06:14:01;20.00;42.10
12156;DHT22;6141;49.092;8.516;2023-07-13T06:16:30;19.80;43.10
12156;DHT22;6141;49.092;8.516;2023-07-13T06:18:59;19.90;42.90
12156;DHT22;6141;49.092;8.516;2023-07-13T06:21:27;20.30;42.50
12156;DHT22;6141;49.092;8.516;2023-07-13T06:23:56;20.70;38.70
12156;DHT22;6141;49.092;8.516;2023-07-13T06:26:24;21.00;37.60
12156;DHT22;6141;49.092;8.516;2023-07-13T06:28:53;20.80;36.50
12156;DHT22;6141;49.092;8.516;2023-07-13T06:31:21;20.50;37.70
12156;DHT22;6141;49.092;8.516;2023-07-13T06:33:49;20.50;34.60
12156;DHT22;6141;49.092;8.516;2023-07-13T06:36:17;20.90;34.60
12156;DHT22;6141;49.092;8.516;2023-07-13T06:38:45;20.90;34.20
12156;DHT22;6141;49.092;8.516;2023-07-13T06:41:14;21.10;32.10
12156;DHT22;6141;49.092;8.516;2023-07-13T06:43:42;21.10;31.90
12156;DHT22;6141;49.092;8.516;2023-07-13T06:46:10;21.30;29.10
12156;DHT22;6141;49.092;8.516;2023-07-13T06:48:40;21.10;29.70
12156;DHT22;6141;49.092;8.516;2023-07-13T06:51:08;21.10;29.10
12156;DHT22;6141;49.092;8.516;2023-07-13T06:53:37;21.30;29.70
12156;DHT22;6141;49.092;8.516;2023-07-13T06:56:05;21.60;28.30
12156;DHT22;6141;49.092;8.516;2023-07-13T06:58:35;22.00;29.00
12156;DHT22;6141;49.092;8.516;2023-07-13T07:01:04;22.20;27.10
12156;DHT22;6141;49.092;8.516;2023-07-13T07:03:34;22.40;25.50
12156;DHT22;6141;49.092;8.516;2023-07-13T07:06:11;22.50;24.80
12156;DHT22;6141;49.092;8.516;2023-07-13T07:08:39;22.60;25.50
12156;DHT22;6141;49.092;8.516;2023-07-13T07:11:11;22.80;25.00
12156;DHT22;6141;49.092;8.516;2023-07-13T07:13:41;22.90;23.90
12156;DHT22;6141;49.092;8.516;2023-07-13T07:16:09;23.20;25.00
12156;DHT22;6141;49.092;8.516;2023-07-13T07:18:37;23.40;21.50
12156;DHT22;6141;49.092;8.516;2023-07-13T07:21:05;23.80;21.20
12156;DHT22;6141;49.092;8.516;2023-07-13T07:23:34;23.80;20.20
12156;DHT22;6141;49.092;8.516;2023-07-13T07:26:04;23.90;20.80
12156;DHT22;6141;49.092;8.516;2023-07-13T07:28:34;24.20;20.00
12156;DHT22;6141;49.092;8.516;2023-07-13T07:31:06;23.80;20.40
12156;DHT22;6141;49.092;8.516;2023-07-13T07:33:37;23.80;21.70
12156;DHT22;6141;49.092;8.516;2023-07-13T07:36:06;23.80;19.90
12156;DHT22;6141;49.092;8.516;2023-07-13T07:38:37;23.90;20.70
12156;DHT22;6141;49.092;8.516;2023-07-13T07:41:05;23.90;21.90
12156;DHT22;6141;49.092;8.516;2023-07-13T07:43:36;23.90;21.90
12156;DHT22;6141;49.092;8.516;2023-07-13T07:46:06;23.90;21.70
12156;DHT22;6141;49.092;8.516;2023-07-13T07:48:34;23.60;22.10
12156;DHT22;6141;49.092;8.516;2023-07-13T07:51:02;24.00;22.90
12156;DHT22;6141;49.092;8.516;2023-07-13T07:53:31;24.30;21.50
12156;DHT22;6141;49.092;8.516;2023-07-13T07:56:00;24.40;21.70
12156;DHT22;6141;49.092;8.516;2023-07-13T07:58:48;24.70;19.30
12156;DHT22;6141;49.092;8.516;2023-07-13T08:01:21;24.60;19.00
12156;DHT22;6141;49.092;8.516;2023-07-13T08:03:52;24.20;18.80
12156;DHT22;6141;49.092;8.516;2023-07-13T08:06:24;24.60;20.20
12156;DHT22;6141;49.092;8.516;2023-07-13T08:09:11;24.90;18.50
12156;DHT22;6141;49.092;8.516;2023-07-13T08:11:39;24.90;19.50
12156;DHT22;6141;49.092;8.516;2023-07-13T08:14:10;24.80;19.20
12156;DHT22;6141;49.092;8.516;2023-07-13T08:16:40;24.70;18.60
12156;DHT22;6141;49.092;8.516;2023-07-13T08:19:08;24.70;18.50
12156;DHT22;6141;49.092;8.516;2023-07-13T08:21:36;24.90;20.30
12156;DHT22;6141;49.092;8.516;2023-07-13T08:24:05;24.70;17.20
12156;DHT22;6141;49.092;8.516;2023-07-13T08:26:33;24.80;19.00
12156;DHT22;6141;49.092;8.516;2023-07-13T08:29:01;24.50;17.80
12156;DHT22;6141;49.092;8.516;2023-07-13T08:31:30;24.50;18.70
12156;DHT22;6141;49.092;8.516;2023-07-13T08:33:59;24.70;18.50
12156;DHT22;6141;49.092;8.516;2023-07-13T08:36:27;24.80;17.30
12156;DHT22;6141;49.092;8.516;2023-07-13T08:38:55;25.10;17.40
12156;DHT22;6141;49.092;8.516;2023-07-13T08:41:23;24.70;15.50
12156;DHT22;6141;49.092;8.516;2023-07-13T08:43:55;24.60;17.10
12156;DHT22;6141;49.092;8.516;2023-07-13T08:46:26;24.70;19.30
12156;DHT22;6141;49.092;8.516;2023-07-13T08:49:02;24.90;17.30
12156;DHT22;6141;49.092;8.516;2023-07-13T08:51:39;25.10;17.40
12156;DHT22;6141;49.092;8.516;2023-07-13T08:54:19;25.00;18.40
12156;DHT22;6141;49.092;8.516;2023-07-13T08:56:49;25.10;17.20
12156;DHT22;6141;49.092;8.516;2023-07-13T08:59:22;25.10;17.50
12156;DHT22;6141;49.092;8.516;2023-07-13T09:02:08;25.00;19.20
12156;DHT22;6141;49.092;8.516;2023-07-13T09:04:47;25.30;16.80
12156;DHT22;6141;49.092;8.516;2023-07-13T09:07:27;25.50;14.80
12156;DHT22;6141;49.092;8.516;2023-07-13T09:10:05;25.40;15.70
12156;DHT22;6141;49.092;8.516;2023-07-13T09:12:43;25.50;15.20
12156;DHT22;6141;49.092;8.516;2023-07-13T09:15:23;25.30;14.40
12156;DHT22;6141;49.092;8.516;2023-07-13T09:17:55;25.40;15.50
12156;DHT22;6141;49.092;8.516;2023-07-13T09:20:30;25.80;12.60
12156;DHT22;6141;49.092;8.516;2023-07-13T09:23:01;25.50;13.90
12156;DHT22;6141;49.092;8.516;2023-07-13T09:25:33;25.30;14.00
12156;DHT22;6141;49.092;8.516;2023-07-13T09:28:09;25.50;16.40
12156;DHT22;6141;49.092;8.516;2023-07-13T09:30:42;26.00;15.80
12156;DHT22;6141;49.092;8.516;2023-07-13T09:33:12;26.20;15.70
12156;DHT22;6141;49.092;8.516;2023-07-13T09:35:42;25.70;12.30
12156;DHT22;6141;49.092;8.516;2023-07-13T09:38:13;25.70;13.40
12156;DHT22;6141;49.092;8.516;2023-07-13T09:40:55;25.70;13.00
12156;DHT22;6141;49.092;8.516;2023-07-13T09:43:25;25.80;14.50
12156;DHT22;6141;49.092;8.516;2023-07-13T09:45:55;25.80;14.80
12156;DHT22;6141;49.092;8.516;2023-07-13T09:48:23;26.00;14.30
12156;DHT22;6141;49.092;8.516;2023-07-13T09:50:55;26.00;12.50
12156;DHT22;6141;49.092;8.516;2023-07-13T09:53:31;25.60;13.80
12156;DHT22;6141;49.092;8.516;2023-07-13T09:55:59;25.30;12.10
12156;DHT22;6141;49.092;8.516;2023-07-13T09:58:31;25.40;15.60
12156;DHT22;6141;49.092;8.516;2023-07-13T10:01:04;25.50;14.50
12156;DHT22;6141;49.092;8.516;2023-07-13T10:03:39;25.90;12.40
12156;DHT22;6141;49.092;8.516;2023-07-13T10:06:14;25.90;15.20
12156;DHT22;6141;49.092;8.516;2023-07-13T10:08:44;25.80;14.00
12156;DHT22;6141;49.092;8.516;2023-07-13T10:11:26;25.90;14.80
12156;DHT22;6141;49.092;8.516;2023-07-13T10:13:58;25.90;13.90
12156;DHT22;6141;49.092;8.516;2023-07-13T10:16:30;25.80;14.10
12156;DHT22;6141;49.092;8.516;2023-07-13T10:19:04;25.80;13.50
12156;DHT22;6141;49.092;8.516;2023-07-13T10:21:40;25.80;14.90
12156;DHT22;6141;49.092;8.516;2023-07-13T10:24:16;25.90;12.50
12156;DHT22;6141;49.092;8.516;2023-07-13T10:26:49;25.90;13.00
12156;DHT22;6141;49.092;8.516;2023-07-13T10:29:20;25.90;14.30
12156;DHT22;6141;49.092;8.516;2023-07-13T10:31:51;26.00;14.30
12156;DHT22;6141;49.092;8.516;2023-07-13T10:34:19;26.30;12.40
12156;DHT22;6141;49.092;8.516;2023-07-13T10:36:49;26.50;12.80
12156;DHT22;6141;49.092;8.516;2023-07-13T10:39:20;26.50;12.80
12156;DHT22;6141;49.092;8.516;2023-07-13T10:41:53;26.60;12.90
12156;DHT22;6141;49.092;8.516;2023-07-13T10:44:25;26.40;12.60
12156;DHT22;6141;49.092;8.516;2023-07-13T10:46:58;26.50;13.90
12156;DHT22;6141;49.092;8.516;2023-07-13T10:49:29;26.40;12.80
12156;DHT22;6141;49.092;8.516;2023-07-13T10:51:59;26.20;12.60
12156;DHT22;6141;49.092;8.516;2023-07-13T10:54:31;26.30;11.20
12156;DHT22;6141;49.092;8.516;2023-07-13T10:57:17;26.50;13.50
12156;DHT22;6141;49.092;8.516;2023-07-13T10:59:48;26.60;12.00
12156;DHT22;6141;49.092;8.516;2023-07-13T11:02:27;26.30;10.90
12156;DHT22;6141;49.092;8.516;2023-07-13T11:04:57;26.50;11.10
12156;DHT22;6141;49.092;8.516;2023-07-13T11:07:28;26.80;12.70
12156;DHT22;6141;49.092;8.516;2023-07-13T11:09:58;26.80;11.90
12156;DHT22;6141;49.092;8.516;2023-07-13T11:15:13;26.90;12.20
12156;DHT22;6141;49.092;8.516;2023-07-13T11:17:49;27.10;13.90
12156;DHT22;6141;49.092;8.516;2023-07-13T11:20:23;27.10;12.40
12156;DHT22;6141;49.092;8.516;2023-07-13T11:23:16;27.20;12.00
12156;DHT22;6141;49.092;8.516;2023-07-13T11:25:46;27.00;11.50
12156;DHT22;6141;49.092;8.516;2023-07-13T11:28:21;26.80;12.20
12156;DHT22;6141;49.092;8.516;2023-07-13T11:31:00;26.50;12.80
12156;DHT22;6141;49.092;8.516;2023-07-13T11:36:31;26.50;12.90
12156;DHT22;6141;49.092;8.516;2023-07-13T11:39:17;26.80;13.60
12156;DHT22;6141;49.092;8.516;2023-07-13T11:41:49;26.80;12.60
12156;DHT22;6141;49.092;8.516;2023-07-13T11:44:21;26.50;11.60
12156;DHT22;6141;49.092;8.516;2023-07-13T11:46:52;26.50;12.80
12156;DHT22;6141;49.092;8.516;2023-07-13T11:49:22;26.70;12.90
12156;DHT22;6141;49.092;8.516;2023-07-13T11:51:52;26.70;12.90
12156;DHT22;6141;49.092;8.516;2023-07-13T11:54:27;26.50;11.40
12156;DHT22;6141;49.092;8.516;2023-07-13T11:56:58;26.60;12.90
12156;DHT22;6141;49.092;8.516;2023-07-13T11:59:30;26.50;13.20
12156;DHT22;6141;49.092;8.516;2023-07-13T12:02:00;26.20;12.10
12156;DHT22;6141;49.092;8.516;2023-07-13T12:04:32;26.20;13.50
12156;DHT22;6141;49.092;8.516;2023-07-13T12:07:07;26.00;13.00
12156;DHT22;6141;49.092;8.516;2023-07-13T12:09:43;25.80;13.10
12156;DHT22;6141;49.092;8.516;2023-07-13T12:12:12;26.10;13.90
12156;DHT22;6141;49.092;8.516;2023-07-13T12:14:41;26.30;13.50
12156;DHT22;6141;49.092;8.516;2023-07-13T12:17:15;26.50;11.50
12156;DHT22;6141;49.092;8.516;2023-07-13T12:19:43;26.70;12.80
12156;DHT22;6141;49.092;8.516;2023-07-13T12:22:13;26.50;12.80
12156;DHT22;6141;49.092;8.516;2023-07-13T12:24:44;26.40;12.70
12156;DHT22;6141;49.092;8.516;2023-07-13T12:27:19;26.40;13.60
12156;DHT22;6141;49.092;8.516;2023-07-13T12:29:52;26.20;13.30
12156;DHT22;6141;49.092;8.516;2023-07-13T12:32:21;26.20;12.60
12156;DHT22;6141;49.092;8.516;2023-07-13T12:34:53;26.10;12.50
12156;DHT22;6141;49.092;8.516;2023-07-13T12:37:23;25.70;12.10
12156;DHT22;6141;49.092;8.516;2023-07-13T12:39:53;25.50;12.20
12156;DHT22;6141;49.092;8.516;2023-07-13T12:42:23;25.40;13.20
12156;DHT22;6141;49.092;8.516;2023-07-13T12:44:57;25.90;13.40
12156;DHT22;6141;49.092;8.516;2023-07-13T12:47:27;26.30;12.70
12156;DHT22;6141;49.092;8.516;2023-07-13T12:49:57;26.70;10.40
12156;DHT22;6141;49.092;8.516;2023-07-13T12:52:29;26.50;9.60
12156;DHT22;6141;49.092;8.516;2023-07-13T12:55:04;26.60;10.60
12156;DHT22;6141;49.092;8.516;2023-07-13T12:57:39;27.00;11.10
12156;DHT22;6141;49.092;8.516;2023-07-13T13:00:21;26.80;6.10
12156;DHT22;6141;49.092;8.516;2023-07-13T13:02:52;26.70;9.00
12156;DHT22;6141;49.092;8.516;2023-07-13T13:05:37;26.80;8.70
12156;DHT22;6141;49.092;8.516;2023-07-13T13:08:07;26.30;7.70
12156;DHT22;6141;49.092;8.516;2023-07-13T13:10:37;26.30;8.30
12156;DHT22;6141;49.092;8.516;2023-07-13T13:13:05;26.40;8.80
12156;DHT22;6141;49.092;8.516;2023-07-13T13:15:35;26.30;7.10
12156;DHT22;6141;49.092;8.516;2023-07-13T13:18:13;26.30;8.60
12156;DHT22;6141;49.092;8.516;2023-07-13T13:20:42;26.30;7.90
12156;DHT22;6141;49.092;8.516;2023-07-13T13:23:12;26.20;8.30
12156;DHT22;6141;49.092;8.516;2023-07-13T13:25:43;26.20;8.10
12156;DHT22;6141;49.092;8.516;2023-07-13T13:28:15;26.30;7.10
12156;DHT22;6141;49.092;8.516;2023-07-13T13:30:45;26.30;8.50
12156;DHT22;6141;49.092;8.516;2023-07-13T13:33:15;26.30;7.20
12156;DHT22;6141;49.092;8.516;2023-07-13T13:35:44;26.50;8.50
12156;DHT22;6141;49.092;8.516;2023-07-13T13:38:13;26.70;7.90
12156;DHT22;6141;49.092;8.516;2023-07-13T13:40:44;26.90;8.30
12156;DHT22;6141;49.092;8.516;2023-07-13T13:43:16;27.10;7.50
12156;DHT22;6141;49.092;8.516;2023-07-13T13:45:45;27.10;8.20
12156;DHT22;6141;49.092;8.516;2023-07-13T13:48:15;27.10;9.20
12156;DHT22;6141;49.092;8.516;2023-07-13T13:50:45;26.70;8.50
12156;DHT22;6141;49.092;8.516;2023-07-13T13:53:13;27.00;9.40
12156;DHT22;6141;49.092;8.516;2023-07-13T13:55:43;27.20;7.60
12156;DHT22;6141;49.092;8.516;2023-07-13T13:58:11;26.90;7.50
12156;DHT22;6141;49.092;8.516;2023-07-13T14:00:39;27.20;8.40
12156;DHT22;6141;49.092;8.516;2023-07-13T14:03:15;27.40;7.70
12156;DHT22;6141;49.092;8.516;2023-07-13T14:05:44;27.60;8.40
12156;DHT22;6141;49.092;8.516;2023-07-13T14:08:14;27.60;7.00
12156;DHT22;6141;49.092;8.516;2023-07-13T14:10:45;27.30;7.90
12156;DHT22;6141;49.092;8.516;2023-07-13T14:13:16;27.20;7.60
12156;DHT22;6141;49.092;8.516;2023-07-13T14:15:46;27.30;7.70
12156;DHT22;6141;49.092;8.516;2023-07-13T14:18:14;27.40;7.70
12156;DHT22;6141;49.092;8.516;2023-07-13T14:20:45;27.50;7.80
12156;DHT22;6141;49.092;8.516;2023-07-13T14:23:14;27.60;7.60
12156;DHT22;6141;49.092;8.516;2023-07-13T14:25:44;27.50;6.50
12156;DHT22;6141;49.092;8.516;2023-07-13T14:28:20;27.40;7.70
12156;DHT22;6141;49.092;8.516;2023-07-13T14:30:49;27.40;7.70
12156;DHT22;6141;49.092;8.516;2023-07-13T14:33:17;27.40;7.70
12156;DHT22;6141;49.092;8.516;2023-07-13T14:35:46;27.40;8.20
12156;DHT22;6141;49.092;8.516;2023-07-13T14:38:18;27.50;7.80
12156;DHT22;6141;49.092;8.516;2023-07-13T14:40:48;27.30;7.70
12156;DHT22;6141;49.092;8.516;2023-07-13T14:43:17;27.10;8.60
12156;DHT22;6141;49.092;8.516;2023-07-13T14:45:48;27.10;9.30
12156;DHT22;6141;49.092;8.516;2023-07-13T14:48:18;27.10;9.20
12156;DHT22;6141;49.092;8.516;2023-07-13T14:50:53;27.10;9.20
12156;DHT22;6141;49.092;8.516;2023-07-13T14:53:21;26.90;7.40
12156;DHT22;6141;49.092;8.516;2023-07-13T14:55:51;26.90;9.40
12156;DHT22;6141;49.092;8.516;2023-07-13T14:58:19;26.90;7.40
12156;DHT22;6141;49.092;8.516;2023-07-13T15:00:48;27.00;8.70
12156;DHT22;6141;49.092;8.516;2023-07-13T15:03:20;26.80;7.50
12156;DHT22;6141;49.092;8.516;2023-07-13T15:05:52;27.00;8.70
12156;DHT22;6141;49.092;8.516;2023-07-13T15:08:21;27.20;7.60
12156;DHT22;6141;49.092;8.516;2023-07-13T15:11:01;27.20;7.70
12156;DHT22;6141;49.092;8.516;2023-07-13T15:13:32;27.00;9.00
12156;DHT22;6141;49.092;8.516;2023-07-13T15:16:18;27.20;8.60
12156;DHT22;6141;49.092;8.516;2023-07-13T15:19:01;27.20;8.00
12156;DHT22;6141;49.092;8.516;2023-07-13T15:21:46;27.30;8.10
12156;DHT22;6141;49.092;8.516;2023-07-13T15:24:30;27.20;7.60
12156;DHT22;6141;49.092;8.516;2023-07-13T15:27:14;27.10;8.00
12156;DHT22;6141;49.092;8.516;2023-07-13T15:29:57;27.10;10.30
12156;DHT22;6141;49.092;8.516;2023-07-13T15:32:41;27.00;7.90
12156;DHT22;6141;49.092;8.516;2023-07-13T15:35:26;27.00;7.60
12156;DHT22;6141;49.092;8.516;2023-07-13T15:38:13;26.60;8.20
12156;DHT22;6141;49.092;8.516;2023-07-13T15:40:57;26.70;8.30
12156;DHT22;6141;49.092;8.516;2023-07-13T15:43:42;27.00;7.50
12156;DHT22;6141;49.092;8.516;2023-07-13T15:46:27;27.10;9.30
12156;DHT22;6141;49.092;8.516;2023-07-13T15:49:10;27.20;8.50
12156;DHT22;6141;49.092;8.516;2023-07-13T15:51:53;27.00;7.50
12156;DHT22;6141;49.092;8.516;2023-07-13T15:54:38;26.70;7.30
12156;DHT22;6141;49.092;8.516;2023-07-13T15:57:21;26.70;8.80
12156;DHT22;6141;49.092;8.516;2023-07-13T16:00:14;26.80;8.70
12156;DHT22;6141;49.092;8.516;2023-07-13T16:02:59;27.00;8.90
12156;DHT22;6141;49.092;8.516;2023-07-13T16:05:42;27.00;8.00
12156;DHT22;6141;49.092;8.516;2023-07-13T16:08:27;27.10;7.50
12156;DHT22;6141;49.092;8.516;2023-07-13T16:11:19;27.10;7.50
12156;DHT22;6141;49.092;8.516;2023-07-13T16:14:03;27.20;7.60
12156;DHT22;6141;49.092;8.516;2023-07-13T16:16:48;27.20;9.10
12156;DHT22;6141;49.092;8.516;2023-07-13T16:19:32;27.30;7.70
12156;DHT22;6141;49.092;8.516;2023-07-13T16:22:17;27.00;7.50
12156;DHT22;6141;49.092;8.516;2023-07-13T16:25:01;27.10;8.00